Time;durP1;ratioP1;P1;durP2;ratioP2;P2;SDS_P1;SDS_P2;PMS_P1;PMS_P2;Temp;Humidity;BMP_temperature;BMP_pressure;BME280_temperature;BME280_humidity;BME280_pressure;Samples;Min_cycle;Max_cycle;Signal;HPM_P1;HPM_P2
2022/11/01 00:00:15;;;;;;;;;;;13.70;99.90;;;;;;5019387;28;19927;-84
2022/11/01 00:02:41;;;;;;;;;;;12.70;99.90;;;;;;5037113;28;19936;-85
2022/11/01 00:05:07;;;;;;;;;;;12.80;99.90;;;;;;5019338;28;19961;-84
2022/11/01 00:07:33;;;;;;;;;;;12.70;99.90;;;;;;5036558;28;19905;-84
2022/11/01 00:09:58;;;;;;;;;;;12.90;99.90;;;;;;5020012;28;19922;-84
2022/11/01 00:12:24;;;;;;;;;;;12.80;99.90;;;;;;5036757;28;19928;-85
2022/11/01 00:14:49;;;;;;;;;;;13.80;99.90;;;;;;5035809;28;19909;-83
2022/11/01 00:17:15;;;;;;;;;;;12.80;99.90;;;;;;5036418;28;19928;-84
2022/11/01 00:19:40;;;;;;;;;;;13.90;99.90;;;;;;5035518;28;20008;-83
2022/11/01 00:22:06;;;;;;;;;;;12.80;99.90;;;;;;5037014;28;20387;-84
2022/11/01 00:24:31;;;;;;;;;;;13.90;99.90;;;;;;5038016;28;19924;-84
2022/11/01 00:26:57;;;;;;;;;;;13.30;99.90;;;;;;5038061;28;19913;-83
2022/11/01 00:29:22;;;;;;;;;;;12.80;99.90;;;;;;5021675;28;19909;-84
2022/11/01 00:31:48;;;;;;;;;;;12.80;99.90;;;;;;5038587;28;19905;-86
2022/11/01 00:34:14;;;;;;;;;;;12.80;99.90;;;;;;5038627;28;19975;-85
2022/11/01 00:36:40;;;;;;;;;;;13.30;99.90;;;;;;5041191;28;20016;-84
2022/11/01 00:39:06;;;;;;;;;;;12.80;99.90;;;;;;5042446;28;19906;-85
2022/11/01 00:41:32;;;;;;;;;;;12.80;99.90;;;;;;5040747;28;19917;-84
2022/11/01 00:43:58;;;;;;;;;;;12.80;99.90;;;;;;5038582;28;19910;-83
2022/11/01 00:46:23;;;;;;;;;;;12.80;99.90;;;;;;5020334;28;19926;-84
2022/11/01 00:48:49;;;;;;;;;;;12.80;99.90;;;;;;5031120;28;19928;-84
2022/11/01 00:51:14;;;;;;;;;;;12.90;99.90;;;;;;5040956;28;19921;-85
2022/11/01 00:53:40;;;;;;;;;;;13.50;99.90;;;;;;5020983;28;20012;-83
2022/11/01 00:56:06;;;;;;;;;;;12.80;99.90;;;;;;5036012;28;19919;-83
2022/11/01 00:58:32;;;;;;;;;;;12.70;99.90;;;;;;5042097;28;19960;-84
2022/11/01 01:00:58;;;;;;;;;;;13.20;99.90;;;;;;5030044;28;19921;-83
2022/11/01 01:03:23;;;;;;;;;;;12.80;99.90;;;;;;5039349;28;19905;-83
2022/11/01 01:05:50;;;;;;;;;;;14.00;99.90;;;;;;5041130;28;19922;-84
2022/11/01 01:08:16;;;;;;;;;;;12.80;99.90;;;;;;5024857;28;19906;-85
2022/11/01 01:10:41;;;;;;;;;;;12.80;99.90;;;;;;5042017;28;19932;-83
2022/11/01 01:13:07;;;;;;;;;;;12.80;99.90;;;;;;5042002;28;19921;-83
2022/11/01 01:15:32;;;;;;;;;;;12.80;99.90;;;;;;5041750;28;19912;-83
2022/11/01 01:17:58;;;;;;;;;;;12.80;99.90;;;;;;5041192;28;19929;-82
2022/11/01 01:20:23;;;;;;;;;;;12.70;99.90;;;;;;5041490;28;19976;-83
2022/11/01 01:22:49;;;;;;;;;;;12.80;99.90;;;;;;5041198;28;19957;-84
2022/11/01 01:25:14;;;;;;;;;;;13.80;99.90;;;;;;5038459;28;19928;-84
2022/11/01 01:27:40;;;;;;;;;;;12.80;99.90;;;;;;5038435;28;20388;-84
2022/11/01 01:30:06;;;;;;;;;;;12.80;99.90;;;;;;5034937;28;19944;-82
2022/11/01 01:32:32;;;;;;;;;;;12.80;99.90;;;;;;5004074;28;19932;-85
2022/11/01 01:34:58;;;;;;;;;;;13.50;99.90;;;;;;5019682;28;19921;-83
2022/11/01 01:37:23;;;;;;;;;;;13.10;99.90;;;;;;5019250;28;19929;-86
2022/11/01 01:39:49;;;;;;;;;;;12.90;99.90;;;;;;5014463;28;19930;-84
2022/11/01 01:42:14;;;;;;;;;;;13.40;99.90;;;;;;5034626;28;19921;-86
2022/11/01 01:44:49;;;;;;;;;;;12.90;99.90;;;;;;5029796;28;19922;-84
2022/11/01 01:47:31;;;;;;;;;;;12.90;99.90;;;;;;5007678;28;19922;-85
2022/11/01 01:50:06;;;;;;;;;;;13.00;99.90;;;;;;5039797;28;19933;-83
2022/11/01 01:52:34;;;;;;;;;;;13.00;99.90;;;;;;5014318;28;19925;-84
2022/11/01 01:55:01;;;;;;;;;;;13.00;99.90;;;;;;5023068;28;19928;-86
2022/11/01 01:57:27;;;;;;;;;;;13.50;99.90;;;;;;5022181;28;19921;-86
2022/11/01 01:59:52;;;;;;;;;;;13.10;99.90;;;;;;5004439;28;20051;-84
2022/11/01 02:02:18;;;;;;;;;;;13.60;99.90;;;;;;5020070;28;19948;-84
2022/11/01 02:04:50;;;;;;;;;;;13.00;99.90;;;;;;5018067;28;19965;-85
2022/11/01 02:07:16;;;;;;;;;;;13.00;99.90;;;;;;5018009;28;19999;-85
2022/11/01 02:09:42;;;;;;;;;;;13.00;99.90;;;;;;5019101;28;19929;-85
2022/11/01 02:12:09;;;;;;;;;;;13.00;99.90;;;;;;5019881;28;20368;-83
2022/11/01 02:14:35;;;;;;;;;;;13.00;99.90;;;;;;5034630;28;20376;-86
2022/11/01 02:17:06;;;;;;;;;;;13.00;99.90;;;;;;5017802;28;19967;-84
2022/11/01 02:19:50;;;;;;;;;;;13.00;99.90;;;;;;5020150;28;19925;-87
2022/11/01 02:22:18;;;;;;;;;;;13.00;99.90;;;;;;4982538;28;19921;-86
2022/11/01 02:24:45;;;;;;;;;;;13.00;99.90;;;;;;5018763;28;19943;-84
2022/11/01 02:27:12;;;;;;;;;;;13.00;99.90;;;;;;5019271;28;20307;-84
2022/11/01 02:29:43;;;;;;;;;;;13.00;99.90;;;;;;5020205;28;19922;-84
2022/11/01 02:32:17;;;;;;;;;;;13.00;99.90;;;;;;5019253;28;19921;-85
2022/11/01 02:34:45;;;;;;;;;;;13.00;99.90;;;;;;4999055;28;19921;-84
2022/11/01 02:37:19;;;;;;;;;;;13.90;99.90;;;;;;5032329;28;20387;-82
2022/11/01 02:39:50;;;;;;;;;;;13.00;99.90;;;;;;5018953;28;19975;-83
2022/11/01 02:42:24;;;;;;;;;;;13.00;99.90;;;;;;5020944;28;20034;-86
2022/11/01 02:45:07;;;;;;;;;;;13.10;99.90;;;;;;5033413;28;19968;-86
2022/11/01 02:47:33;;;;;;;;;;;13.00;99.90;;;;;;5016764;28;19927;-84
2022/11/01 02:50:04;;;;;;;;;;;14.60;99.90;;;;;;5024948;28;19921;-84
2022/11/01 02:52:31;;;;;;;;;;;13.00;99.90;;;;;;5022171;28;19921;-83
2022/11/01 02:55:03;;;;;;;;;;;13.20;99.90;;;;;;5016513;28;19921;-84
2022/11/01 02:57:36;;;;;;;;;;;13.10;99.90;;;;;;5019632;28;19921;-83
2022/11/01 03:00:34;;;;;;;;;;;13.00;99.90;;;;;;5017709;28;19975;-83
2022/11/01 03:03:11;;;;;;;;;;;13.10;99.90;;;;;;4967162;28;19928;-83
2022/11/01 03:05:46;;;;;;;;;;;13.10;99.90;;;;;;4998154;28;19937;-82
2022/11/01 03:08:15;;;;;;;;;;;13.10;99.90;;;;;;5016846;28;20055;-83
2022/11/01 03:10:50;;;;;;;;;;;13.20;99.90;;;;;;5016005;28;19925;-84
2022/11/01 03:13:34;;;;;;;;;;;13.20;99.90;;;;;;5016235;28;20375;-84
2022/11/01 03:16:12;;;;;;;;;;;13.20;99.90;;;;;;5013746;28;19922;-84
2022/11/01 03:19:05;;;;;;;;;;;13.20;99.90;;;;;;4999664;28;20444;-83
2022/11/01 03:21:33;;;;;;;;;;;13.20;99.90;;;;;;5008547;28;19922;-85
2022/11/01 03:24:29;;;;;;;;;;;13.30;99.90;;;;;;5019285;28;19922;-83
2022/11/01 03:27:01;;;;;;;;;;;13.30;99.90;;;;;;5024633;28;19922;-84
2022/11/01 03:29:29;;;;;;;;;;;13.30;99.90;;;;;;5025014;28;20296;-84
2022/11/01 03:31:55;;;;;;;;;;;13.30;99.90;;;;;;5023823;28;19921;-83
2022/11/01 03:34:22;;;;;;;;;;;13.30;99.90;;;;;;5006293;28;19921;-83
2022/11/01 03:36:53;;;;;;;;;;;13.40;99.90;;;;;;5024233;28;19922;-84
2022/11/01 03:39:24;;;;;;;;;;;13.40;99.90;;;;;;5018231;28;19932;-84
2022/11/01 03:41:51;;;;;;;;;;;13.40;99.90;;;;;;5020036;28;20289;-83
2022/11/01 03:44:20;;;;;;;;;;;13.50;99.90;;;;;;5019455;28;19921;-82
2022/11/01 03:46:46;;;;;;;;;;;13.60;99.90;;;;;;5018403;28;19929;-83
2022/11/01 03:49:15;;;;;;;;;;;13.60;99.90;;;;;;5019711;28;19928;-83
2022/11/01 03:51:41;;;;;;;;;;;13.70;99.90;;;;;;5018845;28;19921;-83
2022/11/01 03:54:09;;;;;;;;;;;13.70;99.90;;;;;;5018268;28;19931;-84
2022/11/01 03:56:36;;;;;;;;;;;13.80;99.90;;;;;;5014193;28;19929;-83
2022/11/01 03:59:02;;;;;;;;;;;14.20;99.90;;;;;;5016967;28;19933;-81
2022/11/01 04:01:27;;;;;;;;;;;14.30;99.90;;;;;;5003968;28;19922;-84
2022/11/01 04:03:53;;;;;;;;;;;13.90;99.90;;;;;;4980445;28;19982;-86
2022/11/01 04:06:18;;;;;;;;;;;14.90;99.90;;;;;;4995975;28;19922;-82
2022/11/01 04:08:44;;;;;;;;;;;14.00;99.90;;;;;;5014862;28;20032;-83
2022/11/01 04:11:09;;;;;;;;;;;14.90;99.90;;;;;;5017302;28;20406;-85
2022/11/01 04:13:35;;;;;;;;;;;14.00;99.90;;;;;;5018602;28;19968;-83
2022/11/01 04:21:29;;;;;;;;;;;14.10;99.90;;;;;;5018864;28;19926;-84
2022/11/01 04:23:55;;;;;;;;;;;14.20;99.90;;;;;;5018078;28;19928;-83
2022/11/01 04:26:22;;;;;;;;;;;14.00;99.90;;;;;;5016018;28;19925;-85
2022/11/01 04:28:56;;;;;;;;;;;14.30;99.90;;;;;;4996847;28;19922;-83
2022/11/01 04:31:29;;;;;;;;;;;14.60;99.90;;;;;;4998737;28;19925;-83
2022/11/01 04:33:55;;;;;;;;;;;14.10;99.90;;;;;;5000552;28;19929;-83
2022/11/01 04:36:21;;;;;;;;;;;14.10;99.90;;;;;;5011008;28;19905;-83
2022/11/01 04:38:47;;;;;;;;;;;14.80;99.90;;;;;;5015459;28;19945;-84
2022/11/01 04:41:14;;;;;;;;;;;14.10;99.90;;;;;;5016850;28;19945;-82
2022/11/01 04:43:40;;;;;;;;;;;14.80;99.90;;;;;;5016478;28;19910;-82
2022/11/01 04:46:05;;;;;;;;;;;14.50;99.90;;;;;;5009656;28;19972;-83
2022/11/01 04:48:31;;;;;;;;;;;14.20;99.90;;;;;;5003493;28;20054;-83
2022/11/01 04:50:58;;;;;;;;;;;14.20;99.90;;;;;;5015352;28;19979;-84
2022/11/01 04:53:34;;;;;;;;;;;14.30;99.90;;;;;;5019347;28;19921;-82
2022/11/01 04:56:01;;;;;;;;;;;14.30;99.90;;;;;;5033744;28;19921;-83
2022/11/01 04:58:26;;;;;;;;;;;14.30;99.90;;;;;;5028667;28;19921;-83
2022/11/01 05:01:26;;;;;;;;;;;14.30;99.90;;;;;;5018733;28;19952;-83
2022/11/01 05:03:52;;;;;;;;;;;14.30;99.90;;;;;;5019780;28;20119;-83
2022/11/01 05:06:17;;;;;;;;;;;14.40;99.90;;;;;;5017248;28;19926;-84
2022/11/01 05:08:43;;;;;;;;;;;14.40;99.90;;;;;;5020788;28;19933;-84
2022/11/01 05:11:08;;;;;;;;;;;14.40;99.90;;;;;;5021703;28;19928;-81
2022/11/01 05:13:34;;;;;;;;;;;14.50;99.90;;;;;;5024031;28;19909;-81
2022/11/01 05:16:03;;;;;;;;;;;14.40;99.90;;;;;;5020967;28;19921;-82
2022/11/01 05:18:29;;;;;;;;;;;14.40;99.90;;;;;;5012054;28;19921;-82
2022/11/01 05:20:55;;;;;;;;;;;14.50;99.90;;;;;;5007463;28;19928;-82
2022/11/01 05:23:20;;;;;;;;;;;14.50;99.90;;;;;;5022921;28;19975;-82
2022/11/01 05:25:46;;;;;;;;;;;14.50;99.90;;;;;;5021805;28;20320;-85
2022/11/01 05:28:13;;;;;;;;;;;14.50;99.90;;;;;;5003787;28;19931;-83
2022/11/01 05:30:39;;;;;;;;;;;15.40;99.90;;;;;;5036407;28;20308;-82
2022/11/01 05:33:05;;;;;;;;;;;14.60;99.90;;;;;;5022434;28;19929;-79
2022/11/01 05:35:32;;;;;;;;;;;14.70;99.90;;;;;;5022954;28;20367;-82
2022/11/01 05:37:57;;;;;;;;;;;14.70;99.90;;;;;;5020728;28;20429;-82
2022/11/01 05:40:23;;;;;;;;;;;14.70;99.90;;;;;;5016734;28;19922;-81
2022/11/01 05:42:48;;;;;;;;;;;14.70;99.90;;;;;;5005795;28;19953;-81
2022/11/01 05:45:14;;;;;;;;;;;15.20;99.90;;;;;;5006629;28;19932;-82
2022/11/01 05:47:40;;;;;;;;;;;14.80;99.90;;;;;;5026159;28;19921;-80
2022/11/01 05:50:09;;;;;;;;;;;14.80;99.90;;;;;;5023226;28;19921;-82
2022/11/01 05:52:34;;;;;;;;;;;14.80;99.90;;;;;;5025423;28;19925;-83
2022/11/01 05:55:00;;;;;;;;;;;15.40;99.90;;;;;;5021435;28;19921;-80
2022/11/01 05:57:26;;;;;;;;;;;15.20;99.90;;;;;;5029062;28;19928;-82
2022/11/01 05:59:51;;;;;;;;;;;14.80;99.90;;;;;;5029534;28;19948;-81
2022/11/01 06:02:17;;;;;;;;;;;14.80;99.90;;;;;;5021413;28;19921;-84
2022/11/01 06:04:42;;;;;;;;;;;14.40;99.90;;;;;;5043926;28;20008;-82
2022/11/01 06:07:08;;;;;;;;;;;14.80;99.90;;;;;;5047849;28;20292;-85
2022/11/01 06:09:33;;;;;;;;;;;14.80;99.90;;;;;;5024233;28;19937;-81
2022/11/01 06:11:59;;;;;;;;;;;14.70;99.90;;;;;;5041987;28;19921;-83
2022/11/01 06:14:24;;;;;;;;;;;14.60;99.90;;;;;;5026915;28;20368;-82
2022/11/01 06:16:50;;;;;;;;;;;14.60;99.90;;;;;;5024831;28;19921;-84
2022/11/01 06:19:15;;;;;;;;;;;14.80;99.90;;;;;;5005178;28;19969;-82
2022/11/01 06:21:41;;;;;;;;;;;14.50;99.90;;;;;;5028486;28;19921;-82
2022/11/01 06:24:07;;;;;;;;;;;14.40;99.90;;;;;;5021095;28;19921;-82
2022/11/01 06:26:32;;;;;;;;;;;14.30;99.90;;;;;;5023643;28;19925;-81
2022/11/01 06:29:15;;;;;;;;;;;14.30;99.90;;;;;;4995645;28;20774;-84
2022/11/01 06:31:40;;;;;;;;;;;14.20;99.90;;;;;;5002260;28;19929;-82
2022/11/01 06:34:06;;;;;;;;;;;14.20;99.90;;;;;;5015137;28;19925;-81
2022/11/01 06:36:57;;;;;;;;;;;14.10;99.90;;;;;;5031927;28;19925;-83
2022/11/01 06:39:23;;;;;;;;;;;14.60;99.90;;;;;;5040793;28;19921;-82
2022/11/01 06:41:49;;;;;;;;;;;14.00;99.90;;;;;;5028039;28;19975;-82
2022/11/01 06:44:15;;;;;;;;;;;14.00;99.90;;;;;;5024739;28;19922;-81
2022/11/01 06:46:40;;;;;;;;;;;14.90;99.90;;;;;;5029890;28;19928;-81
2022/11/01 06:49:06;;;;;;;;;;;13.90;99.90;;;;;;5021339;28;20051;-83
2022/11/01 06:51:32;;;;;;;;;;;13.80;99.90;;;;;;5020454;28;20019;-83
2022/11/01 06:53:57;;;;;;;;;;;13.70;99.90;;;;;;5025894;28;19921;-82
2022/11/01 06:56:23;;;;;;;;;;;13.70;99.90;;;;;;5034288;28;19921;-81
2022/11/01 06:58:49;;;;;;;;;;;13.60;99.90;;;;;;5025365;28;19927;-82
2022/11/01 07:01:17;;;;;;;;;;;13.70;99.90;;;;;;5022650;28;19944;-84
2022/11/01 07:03:43;;;;;;;;;;;13.60;99.90;;;;;;5041404;28;20059;-83
2022/11/01 07:06:08;;;;;;;;;;;13.60;99.90;;;;;;5026542;28;19960;-81
2022/11/01 07:08:34;;;;;;;;;;;13.60;99.90;;;;;;5009648;28;19936;-80
2022/11/01 07:10:59;;;;;;;;;;;13.60;99.90;;;;;;5000196;28;20017;-82
2022/11/01 07:13:25;;;;;;;;;;;13.80;99.90;;;;;;5014228;28;19922;-81
2022/11/01 07:15:50;;;;;;;;;;;13.60;99.90;;;;;;5023336;28;19926;-83
2022/11/01 07:18:16;;;;;;;;;;;13.50;99.90;;;;;;5035195;28;20002;-82
2022/11/01 07:20:41;;;;;;;;;;;13.90;99.90;;;;;;5024104;28;19932;-81
2022/11/01 07:23:14;;;;;;;;;;;13.40;99.90;;;;;;5021269;28;19943;-82
2022/11/01 07:25:40;;;;;;;;;;;13.40;99.90;;;;;;5025012;28;19927;-81
2022/11/01 07:28:06;;;;;;;;;;;13.40;99.90;;;;;;5025300;28;20356;-83
2022/11/01 07:30:31;;;;;;;;;;;13.30;99.90;;;;;;5031776;28;19925;-85
2022/11/01 07:32:58;;;;;;;;;;;13.40;99.90;;;;;;5033328;28;19989;-83
2022/11/01 07:35:24;;;;;;;;;;;14.20;99.90;;;;;;5013717;28;20380;-82
2022/11/01 07:37:50;;;;;;;;;;;13.50;99.90;;;;;;5029128;28;19948;-83
2022/11/01 07:40:16;;;;;;;;;;;13.90;99.90;;;;;;5033249;28;19921;-84
2022/11/01 07:42:42;;;;;;;;;;;13.60;99.90;;;;;;5028337;28;19927;-84
2022/11/01 07:45:11;;;;;;;;;;;13.60;99.90;;;;;;5031305;28;19925;-83
2022/11/01 07:47:37;;;;;;;;;;;13.70;99.90;;;;;;5032735;28;20004;-84
2022/11/01 07:50:03;;;;;;;;;;;13.80;99.90;;;;;;5026330;28;19925;-83
2022/11/01 07:52:29;;;;;;;;;;;13.80;99.90;;;;;;5029758;28;20386;-84
2022/11/01 07:54:54;;;;;;;;;;;14.10;99.90;;;;;;5028654;28;19917;-82
2022/11/01 07:57:20;;;;;;;;;;;13.80;99.90;;;;;;5025099;28;19928;-83
2022/11/01 07:59:45;;;;;;;;;;;13.80;99.90;;;;;;5026661;28;19967;-84
2022/11/01 08:02:11;;;;;;;;;;;13.90;99.90;;;;;;5010215;28;20349;-84
2022/11/01 08:04:36;;;;;;;;;;;14.00;99.90;;;;;;5028653;28;19929;-82
2022/11/01 08:07:02;;;;;;;;;;;14.20;99.90;;;;;;5008772;28;19930;-83
2022/11/01 08:09:27;;;;;;;;;;;13.30;99.90;;;;;;5008831;28;19945;-82
2022/11/01 08:11:53;;;;;;;;;;;14.10;99.90;;;;;;5029211;28;19905;-81
2022/11/01 08:14:18;;;;;;;;;;;14.10;99.90;;;;;;5028897;28;19921;-80
2022/11/01 08:16:47;;;;;;;;;;;14.20;99.90;;;;;;5027728;28;19916;-81
2022/11/01 08:19:12;;;;;;;;;;;14.20;99.90;;;;;;5028682;28;19925;-83
2022/11/01 08:21:38;;;;;;;;;;;14.90;99.90;;;;;;5027515;28;19921;-81
2022/11/01 08:24:03;;;;;;;;;;;14.30;99.90;;;;;;5028454;28;20323;-82
2022/11/01 08:26:29;;;;;;;;;;;14.30;99.90;;;;;;5027590;28;19921;-82
2022/11/01 08:28:54;;;;;;;;;;;14.40;99.90;;;;;;5027276;28;19982;-83
2022/11/01 08:31:20;;;;;;;;;;;14.80;99.90;;;;;;5025279;28;20012;-81
2022/11/01 08:33:45;;;;;;;;;;;14.40;99.90;;;;;;5023786;28;19928;-83
2022/11/01 08:36:11;;;;;;;;;;;14.40;99.90;;;;;;5024831;28;20386;-82
2022/11/01 08:38:36;;;;;;;;;;;14.50;99.90;;;;;;5006875;28;20004;-84
2022/11/01 08:41:02;;;;;;;;;;;14.50;99.90;;;;;;5024264;28;19988;-83
2022/11/01 08:43:28;;;;;;;;;;;14.50;99.90;;;;;;5026069;28;19929;-82
2022/11/01 08:45:53;;;;;;;;;;;14.50;99.90;;;;;;5024411;28;20396;-83
2022/11/01 08:48:19;;;;;;;;;;;14.50;99.90;;;;;;5012238;28;19922;-83
2022/11/01 08:50:44;;;;;;;;;;;14.40;99.90;;;;;;5003160;28;19929;-81
2022/11/01 08:53:11;;;;;;;;;;;14.40;99.90;;;;;;5014509;28;19929;-83
2022/11/01 08:55:37;;;;;;;;;;;14.30;99.90;;;;;;5022021;28;19936;-84
2022/11/01 08:58:03;;;;;;;;;;;15.20;99.90;;;;;;5021159;28;19921;-84
2022/11/01 09:00:28;;;;;;;;;;;14.30;99.90;;;;;;5025748;28;19921;-83
2022/11/01 09:02:54;;;;;;;;;;;14.30;99.90;;;;;;5025301;28;19953;-84
2022/11/01 09:05:20;;;;;;;;;;;14.40;99.90;;;;;;5023372;28;20368;-81
2022/11/01 09:07:45;;;;;;;;;;;14.40;99.90;;;;;;5020453;28;19928;-83
2022/11/01 09:10:11;;;;;;;;;;;14.30;99.90;;;;;;5005141;28;19984;-81
2022/11/01 09:12:36;;;;;;;;;;;14.30;99.90;;;;;;5005542;28;19922;-82
2022/11/01 09:15:03;;;;;;;;;;;15.20;99.90;;;;;;5007129;28;19925;-81
2022/11/01 09:17:28;;;;;;;;;;;14.80;99.90;;;;;;5024543;28;19921;-83
2022/11/01 09:19:54;;;;;;;;;;;15.10;99.90;;;;;;5005261;28;20016;-82
2022/11/01 09:22:20;;;;;;;;;;;16.70;99.90;;;;;;5022881;28;19929;-82
2022/11/01 09:24:45;;;;;;;;;;;15.70;99.90;;;;;;5026169;28;19921;-82
2022/11/01 09:27:11;;;;;;;;;;;16.10;99.90;;;;;;5026201;28;19988;-83
2022/11/01 09:29:37;;;;;;;;;;;16.10;99.90;;;;;;5029677;28;19967;-84
2022/11/01 09:32:03;;;;;;;;;;;16.20;99.90;;;;;;5028683;28;19969;-84
2022/11/01 09:34:28;;;;;;;;;;;16.40;99.90;;;;;;5029043;28;20297;-82
2022/11/01 09:36:54;;;;;;;;;;;17.00;99.90;;;;;;5025912;28;19921;-82
2022/11/01 09:39:20;;;;;;;;;;;16.30;99.90;;;;;;5020079;28;19929;-81
2022/11/01 09:42:06;;;;;;;;;;;16.30;99.90;;;;;;5007102;28;19922;-83
2022/11/01 09:44:34;;;;;;;;;;;16.20;99.90;;;;;;5005365;28;19981;-82
2022/11/01 09:47:06;;;;;;;;;;;16.10;99.90;;;;;;5026280;28;19921;-83
2022/11/01 09:49:34;;;;;;;;;;;16.00;99.90;;;;;;5026312;28;19925;-82
2022/11/01 09:51:59;;;;;;;;;;;16.00;99.90;;;;;;5027160;28;19921;-85
2022/11/01 09:54:25;;;;;;;;;;;16.30;99.90;;;;;;5041525;28;19921;-83
2022/11/01 09:56:51;;;;;;;;;;;16.50;99.90;;;;;;5025205;28;19996;-83
2022/11/01 09:59:34;;;;;;;;;;;16.90;99.90;;;;;;5026039;28;19967;-82
2022/11/01 10:02:16;;;;;;;;;;;17.30;99.90;;;;;;5007414;28;19922;-82
2022/11/01 10:04:44;;;;;;;;;;;17.60;99.90;;;;;;5018797;28;19921;-85
2022/11/01 10:07:31;;;;;;;;;;;17.80;99.90;;;;;;5029665;28;19922;-83
2022/11/01 10:09:56;;;;;;;;;;;18.00;99.90;;;;;;5009342;28;19921;-83
2022/11/01 10:12:41;;;;;;;;;;;18.20;99.90;;;;;;5029282;28;19932;-83
2022/11/01 10:15:23;;;;;;;;;;;18.30;99.90;;;;;;5026011;28;19921;-84
2022/11/01 10:17:53;;;;;;;;;;;18.30;99.90;;;;;;5029386;28;19928;-85
2022/11/01 10:20:25;;;;;;;;;;;18.00;99.90;;;;;;5025394;28;19922;-83
2022/11/01 10:22:51;;;;;;;;;;;17.90;99.90;;;;;;5024653;28;20003;-82
2022/11/01 10:25:18;;;;;;;;;;;18.10;99.90;;;;;;5010279;28;19922;-82
2022/11/01 10:27:43;;;;;;;;;;;18.30;99.90;;;;;;5035571;28;19961;-84
2022/11/01 10:30:09;;;;;;;;;;;18.20;99.90;;;;;;5026926;28;19945;-83
2022/11/01 10:32:54;;;;;;;;;;;17.80;99.90;;;;;;5019092;28;19922;-85
2022/11/01 10:35:29;;;;;;;;;;;17.60;99.90;;;;;;5033951;28;19921;-85
2022/11/01 10:38:05;;;;;;;;;;;17.40;99.90;;;;;;5035245;28;19984;-85
2022/11/01 10:40:35;;;;;;;;;;;17.20;99.90;;;;;;5034361;28;19929;-83
2022/11/01 10:43:01;;;;;;;;;;;16.90;99.90;;;;;;5035099;28;19968;-85
2022/11/01 10:45:26;;;;;;;;;;;16.90;99.90;;;;;;5028127;28;19921;-84
2022/11/01 10:47:55;;;;;;;;;;;16.70;99.90;;;;;;5014546;28;19921;-84
2022/11/01 10:50:21;;;;;;;;;;;16.70;99.90;;;;;;5036129;28;19909;-81
2022/11/01 10:52:51;;;;;;;;;;;16.60;99.90;;;;;;5037349;28;19921;-84
2022/11/01 10:55:20;;;;;;;;;;;16.80;99.90;;;;;;5037633;28;19921;-82
2022/11/01 10:57:55;;;;;;;;;;;16.30;99.90;;;;;;5030887;28;19948;-84
2022/11/01 11:00:21;;;;;;;;;;;16.20;99.90;;;;;;5037765;28;19912;-82
2022/11/01 11:02:52;;;;;;;;;;;16.10;99.90;;;;;;5014903;28;20000;-83
2022/11/01 11:05:19;;;;;;;;;;;16.10;99.90;;;;;;5009170;28;19925;-82
2022/11/01 11:07:45;;;;;;;;;;;16.00;99.90;;;;;;5022278;28;19921;-85
2022/11/01 11:10:20;;;;;;;;;;;15.90;99.90;;;;;;5008201;28;19928;-83
2022/11/01 11:12:48;;;;;;;;;;;15.80;99.90;;;;;;5007068;28;19921;-82
2022/11/01 11:15:35;;;;;;;;;;;15.70;99.90;;;;;;5000634;28;19921;-76
2022/11/01 11:18:01;;;;;;;;;;;15.70;99.90;;;;;;5029780;28;19932;-82
2022/11/01 11:20:29;;;;;;;;;;;15.60;99.90;;;;;;5029490;28;19948;-80
2022/11/01 11:22:55;;;;;;;;;;;16.20;99.90;;;;;;5030805;28;19965;-81
2022/11/01 11:25:26;;;;;;;;;;;15.60;99.90;;;;;;5023460;28;19933;-80
2022/11/01 11:27:52;;;;;;;;;;;15.60;99.90;;;;;;5025442;28;19921;-78
2022/11/01 11:30:25;;;;;;;;;;;15.50;99.90;;;;;;5025016;28;19925;-80
2022/11/01 11:32:52;;;;;;;;;;;15.40;99.90;;;;;;5020321;28;19956;-80
2022/11/01 11:35:23;;;;;;;;;;;15.40;99.90;;;;;;5018475;28;19930;-80
2022/11/01 11:37:51;;;;;;;;;;;15.50;99.90;;;;;;5017056;28;19921;-80
2022/11/01 11:40:25;;;;;;;;;;;16.30;99.90;;;;;;5017696;28;19921;-81
2022/11/01 11:42:52;;;;;;;;;;;15.50;99.90;;;;;;5019276;28;19921;-81
2022/11/01 11:45:19;;;;;;;;;;;15.50;99.90;;;;;;5020160;28;19940;-81
2022/11/01 11:47:48;;;;;;;;;;;15.60;99.90;;;;;;5019307;28;19960;-79
2022/11/01 11:50:20;;;;;;;;;;;15.70;99.90;;;;;;5018174;28;19933;-81
2022/11/01 11:52:59;;;;;;;;;;;15.70;99.90;;;;;;5020738;28;19945;-80
2022/11/01 11:55:42;;;;;;;;;;;15.80;99.90;;;;;;5015958;28;19977;-81
2022/11/01 11:58:34;;;;;;;;;;;15.90;99.90;;;;;;5021032;28;19975;-80
2022/11/01 12:01:04;;;;;;;;;;;15.80;99.90;;;;;;5008904;28;19921;-77
2022/11/01 12:03:36;;;;;;;;;;;15.80;99.90;;;;;;5014999;28;19927;-81
2022/11/01 12:06:07;;;;;;;;;;;15.80;99.90;;;;;;5017953;28;19925;-81
2022/11/01 12:08:32;;;;;;;;;;;15.80;99.90;;;;;;5015642;28;19969;-81
2022/11/01 12:10:58;;;;;;;;;;;15.80;99.90;;;;;;5018812;28;19936;-79
2022/11/01 12:13:43;;;;;;;;;;;15.80;99.90;;;;;;5020245;28;19921;-79
2022/11/01 12:16:13;;;;;;;;;;;15.90;99.90;;;;;;5017123;28;19928;-80
2022/11/01 12:18:49;;;;;;;;;;;15.90;99.90;;;;;;5017313;28;19929;-81
2022/11/01 12:21:35;;;;;;;;;;;16.00;99.90;;;;;;4997827;28;19921;-79
2022/11/01 12:24:06;;;;;;;;;;;16.10;99.90;;;;;;5008102;28;19944;-81
2022/11/01 12:26:33;;;;;;;;;;;16.10;99.90;;;;;;4998994;28;19929;-79
2022/11/01 12:29:12;;;;;;;;;;;16.20;99.90;;;;;;5015671;28;20015;-79
2022/11/01 12:31:40;;;;;;;;;;;16.20;99.90;;;;;;5016837;28;19922;-79
2022/11/01 12:34:20;;;;;;;;;;;16.20;99.90;;;;;;4989151;28;20289;-80
2022/11/01 12:36:57;;;;;;;;;;;16.20;99.90;;;;;;5018953;28;19951;-79
2022/11/01 12:39:39;;;;;;;;;;;16.20;99.90;;;;;;5023335;28;20019;-81
2022/11/01 12:42:04;;;;;;;;;;;16.20;99.90;;;;;;5004702;28;19956;-80
2022/11/01 12:44:39;;;;;;;;;;;16.30;99.90;;;;;;5023108;28;19922;-81
2022/11/01 12:47:11;;;;;;;;;;;16.20;99.90;;;;;;5023153;28;19992;-81
2022/11/01 12:49:45;;;;;;;;;;;16.20;99.90;;;;;;5004024;28;20357;-80
2022/11/01 12:52:20;;;;;;;;;;;16.20;99.90;;;;;;5014472;28;19922;-79
2022/11/01 12:54:56;;;;;;;;;;;16.30;99.90;;;;;;5017918;28;19922;-80
2022/11/01 12:57:22;;;;;;;;;;;17.00;99.90;;;;;;5023134;28;19921;-79
2022/11/01 12:59:49;;;;;;;;;;;16.30;99.90;;;;;;5017511;28;20020;-80
2022/11/01 13:02:24;;;;;;;;;;;16.30;99.90;;;;;;5012699;28;19975;-80
2022/11/01 13:04:55;;;;;;;;;;;16.30;99.90;;;;;;5030803;28;19928;-81
2022/11/01 13:07:35;;;;;;;;;;;16.30;99.90;;;;;;5015216;28;19918;-81
2022/11/01 13:10:06;;;;;;;;;;;16.30;99.90;;;;;;5018467;28;19944;-81
2022/11/01 13:12:38;;;;;;;;;;;16.30;99.90;;;;;;5020292;28;19925;-79
2022/11/01 13:15:06;;;;;;;;;;;16.30;99.90;;;;;;5021241;28;19921;-81
2022/11/01 13:17:41;;;;;;;;;;;16.30;99.90;;;;;;5022000;28;20130;-81
2022/11/01 13:20:22;;;;;;;;;;;16.30;99.90;;;;;;5027294;28;19921;-80
2022/11/01 13:23:05;;;;;;;;;;;16.20;99.90;;;;;;5020796;28;19928;-77
2022/11/01 13:25:37;;;;;;;;;;;16.20;99.90;;;;;;5029645;28;19921;-79
2022/11/01 13:28:22;;;;;;;;;;;16.20;99.90;;;;;;5024029;28;19932;-80
2022/11/01 13:31:02;;;;;;;;;;;16.10;99.90;;;;;;5022808;28;19976;-81
2022/11/01 13:33:38;;;;;;;;;;;16.10;99.90;;;;;;5007310;28;19925;-80
2022/11/01 13:36:10;;;;;;;;;;;16.10;99.90;;;;;;5017069;28;19929;-81
2022/11/01 13:38:46;;;;;;;;;;;16.00;99.90;;;;;;5021022;28;20299;-80
2022/11/01 13:41:30;;;;;;;;;;;16.00;99.90;;;;;;5035655;28;19921;-79
2022/11/01 13:44:03;;;;;;;;;;;16.00;99.90;;;;;;5022620;28;19921;-80
2022/11/01 13:46:42;;;;;;;;;;;16.40;99.90;;;;;;5024066;28;19921;-80
2022/11/01 13:49:08;;;;;;;;;;;15.90;99.90;;;;;;5028362;28;20000;-80
2022/11/01 13:51:55;;;;;;;;;;;15.90;99.90;;;;;;5018892;28;20372;-83
2022/11/01 13:54:26;;;;;;;;;;;15.90;99.90;;;;;;5011398;28;19960;-81
2022/11/01 13:56:55;;;;;;;;;;;15.80;99.90;;;;;;5013283;28;20253;-80
2022/11/01 13:59:46;;;;;;;;;;;15.80;99.90;;;;;;5006468;28;20376;-79
2022/11/01 14:02:21;;;;;;;;;;;15.80;99.90;;;;;;5022560;28;19996;-79
2022/11/01 14:04:59;;;;;;;;;;;15.80;99.90;;;;;;5025243;28;19929;-79
2022/11/01 14:07:43;;;;;;;;;;;15.70;99.90;;;;;;5013049;28;19968;-79
2022/11/01 14:10:31;;;;;;;;;;;15.70;99.90;;;;;;5025349;28;19949;-79
2022/11/01 14:12:58;;;;;;;;;;;15.70;99.90;;;;;;5024415;28;19922;-81
2022/11/01 14:15:25;;;;;;;;;;;15.30;99.90;;;;;;5020163;28;20004;-80
2022/11/01 14:17:54;;;;;;;;;;;15.40;99.90;;;;;;5020799;28;20012;-80
2022/11/01 14:20:32;;;;;;;;;;;15.60;99.90;;;;;;5023417;28;19921;-82
2022/11/01 14:23:17;;;;;;;;;;;15.70;99.90;;;;;;5015381;28;20392;-81
2022/11/01 14:25:43;;;;;;;;;;;16.30;99.90;;;;;;5020012;28;19921;-80
2022/11/01 14:28:29;;;;;;;;;;;15.60;99.90;;;;;;5020820;28;19967;-81
2022/11/01 14:30:55;;;;;;;;;;;15.60;99.90;;;;;;5019621;28;19922;-81
2022/11/01 14:33:21;;;;;;;;;;;16.70;99.90;;;;;;4995898;28;20372;-82